Terminal Aerodrome Forecast
Issued by NWS Wakefield, VA

Home | Current Version | Previous Version | Text Only | Print | Product List | Glossary On
Versions: 1 2 3 4 5 6 7 8 9 10 11 12 13 14 15 16 17 18 19 20 21 22 23 24
000
FTUS41 KAKQ 240500
TAFORF
TAF
KORF 240539Z 2406/2506 VRB06KT P6SM SCT060 SCT100 BKN250
     FM241500 02008KT P6SM VCSH BKN030 BKN100 OVC200
     FM241800 VRB06KT 6SM -SHRA BKN025 BKN070 OVC120=

USA.gov is the U.S. government's official web portal to all federal, state and local government web resources and services.